Time,TemperatureF,DewpointF,PressureIn,WindDirection,WindDirectionDegrees,WindSpeedMPH,WindSpeedGustMPH,Humidity,HourlyPrecipIn,Conditions,Clouds,dailyrainin,SoftwareType,DateUTC
2013-10-02 00:06:00,65.5,63.0,30.15,SSE,165,0.0,-999.0,91,-99.99,,,0.00,weatherlink.com 1.10,2013-10-02 05:06:00,
2013-10-02 00:21:00,65.0,62.0,30.15,SSE,165,0.0,-999.0,91,-99.99,,,0.00,weatherlink.com 1.10,2013-10-02 05:21:00,
2013-10-02 00:36:00,64.5,62.0,30.15,SSE,165,0.0,-999.0,91,-99.99,,,0.00,weatherlink.com 1.10,2013-10-02 05:36:00,
2013-10-02 00:51:00,64.1,62.0,30.15,SSE,165,0.0,-999.0,92,-99.99,,,0.00,weatherlink.com 1.10,2013-10-02 05:51:00,
2013-10-02 01:06:00,64.4,62.0,30.16,SSE,165,0.0,-999.0,92,-99.99,,,0.00,weatherlink.com 1.10,2013-10-02 06:06:00,
2013-10-02 01:21:00,64.5,62.0,30.15,SSE,165,0.0,-999.0,92,-99.99,,,0.00,weatherlink.com 1.10,2013-10-02 06:21:00,
2013-10-02 01:36:00,64.6,62.0,30.15,SSE,165,0.0,-999.0,91,-99.99,,,0.00,weatherlink.com 1.10,2013-10-02 06:36:00,
2013-10-02 01:51:00,63.7,61.0,30.15,SSE,165,0.0,-999.0,91,-99.99,,,0.00,weatherlink.com 1.10,2013-10-02 06:51:00,
2013-10-02 02:06:00,63.2,61.0,30.15,SSE,165,0.0,-999.0,92,-99.99,,,0.00,weatherlink.com 1.10,2013-10-02 07:06:00,
2013-10-02 02:21:00,62.9,61.0,30.15,SSE,165,0.0,-999.0,92,-99.99,,,0.00,weatherlink.com 1.10,2013-10-02 07:21:00,
2013-10-02 02:36:00,62.6,60.0,30.14,SSE,165,0.0,-999.0,92,-99.99,,,0.00,weatherlink.com 1.10,2013-10-02 07:36:00,
2013-10-02 02:51:00,62.5,60.0,30.14,SSE,165,0.0,-999.0,92,-99.99,,,0.00,weatherlink.com 1.10,2013-10-02 07:51:00,
2013-10-02 03:06:00,62.5,60.0,30.14,SSE,165,0.0,-999.0,92,-99.99,,,0.00,weatherlink.com 1.10,2013-10-02 08:06:00,
2013-10-02 03:21:00,62.5,60.0,30.14,SSE,165,2.0,-999.0,92,-99.99,,,0.00,weatherlink.com 1.10,2013-10-02 08:21:00,
2013-10-02 03:36:00,62.9,61.0,30.14,SSE,165,0.0,-999.0,92,-99.99,,,0.00,weatherlink.com 1.10,2013-10-02 08:36:00,
2013-10-02 03:51:00,63.1,61.0,30.15,SSE,165,0.0,-999.0,92,-99.99,,,0.00,weatherlink.com 1.10,2013-10-02 08:51:00,
2013-10-02 04:06:00,62.8,61.0,30.15,SSE,165,0.0,-999.0,92,-99.99,,,0.00,weatherlink.com 1.10,2013-10-02 09:06:00,
2013-10-02 04:21:00,62.5,60.0,30.15,SSE,165,0.0,-999.0,92,-99.99,,,0.00,weatherlink.com 1.10,2013-10-02 09:21:00,
2013-10-02 04:36:00,62.1,60.0,30.15,SSE,165,0.0,-999.0,92,-99.99,,,0.00,weatherlink.com 1.10,2013-10-02 09:36:00,
2013-10-02 04:51:00,61.6,59.0,30.15,SSE,165,0.0,-999.0,92,-99.99,,,0.00,weatherlink.com 1.10,2013-10-02 09:51:00,
2013-10-02 05:06:00,62.0,60.0,30.15,SSE,165,0.0,-999.0,92,-99.99,,,0.00,weatherlink.com 1.10,2013-10-02 10:06:00,
2013-10-02 05:21:00,62.7,60.0,30.16,SSE,165,0.0,-999.0,92,-99.99,,,0.00,weatherlink.com 1.10,2013-10-02 10:21:00,
2013-10-02 05:36:00,62.7,60.0,30.16,SSE,165,0.0,-999.0,92,-99.99,,,0.00,weatherlink.com 1.10,2013-10-02 10:36:00,
2013-10-02 05:51:00,62.5,60.0,30.16,SSE,166,0.0,-999.0,92,-99.99,,,0.00,weatherlink.com 1.10,2013-10-02 10:51:00,
2013-10-02 06:06:00,62.4,60.0,30.17,SSE,165,0.0,-999.0,92,-99.99,,,0.00,weatherlink.com 1.10,2013-10-02 11:06:00,
2013-10-02 06:21:00,62.1,60.0,30.18,SSE,165,0.0,-999.0,92,-99.99,,,0.00,weatherlink.com 1.10,2013-10-02 11:21:00,
2013-10-02 06:36:00,61.9,60.0,30.18,SSE,165,0.0,-999.0,92,-99.99,,,0.00,weatherlink.com 1.10,2013-10-02 11:36:00,
2013-10-02 06:51:00,61.3,59.0,30.18,SSE,165,0.0,-999.0,92,-99.99,,,0.00,weatherlink.com 1.10,2013-10-02 11:51:00,
2013-10-02 07:06:00,61.4,59.0,30.19,SSE,166,0.0,-999.0,92,-99.99,,,0.00,weatherlink.com 1.10,2013-10-02 12:06:00,
2013-10-02 07:21:00,61.9,60.0,30.19,SSE,165,0.0,-999.0,92,-99.99,,,0.00,weatherlink.com 1.10,2013-10-02 12:21:00,
2013-10-02 07:36:00,62.9,61.0,30.20,ENE,75,0.0,-999.0,92,-99.99,,,0.00,weatherlink.com 1.10,2013-10-02 12:36:00,
2013-10-02 07:51:00,64.0,62.0,30.20,ENE,75,0.0,-999.0,92,-99.99,,,0.00,weatherlink.com 1.10,2013-10-02 12:51:00,
2013-10-02 08:07:00,66.6,64.0,30.20,SW,218,0.0,-999.0,91,-99.99,,,0.00,weatherlink.com 1.10,2013-10-02 13:07:00,
2013-10-02 08:22:00,67.8,64.0,30.20,SW,217,0.0,-999.0,88,-99.99,,,0.00,weatherlink.com 1.10,2013-10-02 13:22:00,
2013-10-02 08:37:00,69.2,64.0,30.21,SSW,211,1.0,-999.0,84,-99.99,,,0.00,weatherlink.com 1.10,2013-10-02 13:37:00,
2013-10-02 08:52:00,70.1,65.0,30.20,SSE,153,1.0,-999.0,84,-99.99,,,0.00,weatherlink.com 1.10,2013-10-02 13:52:00,
2013-10-02 09:07:00,71.5,65.0,30.20,SSE,153,0.0,-999.0,81,-99.99,,,0.00,weatherlink.com 1.10,2013-10-02 14:07:00,
2013-10-02 09:22:00,72.5,66.0,30.21,SE,138,0.0,-999.0,79,-99.99,,,0.00,weatherlink.com 1.10,2013-10-02 14:22:00,
2013-10-02 09:37:00,73.4,66.0,30.20,SE,134,0.0,-999.0,78,-99.99,,,0.00,weatherlink.com 1.10,2013-10-02 14:37:00,
2013-10-02 09:52:00,73.8,65.0,30.20,WSW,238,1.0,-999.0,74,-99.99,,,0.00,weatherlink.com 1.10,2013-10-02 14:52:00,
2013-10-02 10:07:00,73.8,66.0,30.20,SSW,194,2.0,-999.0,77,-99.99,,,0.00,weatherlink.com 1.10,2013-10-02 15:07:00,
2013-10-02 10:22:00,73.7,65.0,30.20,SW,222,0.0,-999.0,75,-99.99,,,0.00,weatherlink.com 1.10,2013-10-02 15:22:00,
2013-10-02 10:37:00,74.9,65.0,30.20,South,188,0.0,-999.0,72,-99.99,,,0.00,weatherlink.com 1.10,2013-10-02 15:37:00,
2013-10-02 10:52:00,75.5,66.0,30.20,SSE,164,0.0,-999.0,72,-99.99,,,0.00,weatherlink.com 1.10,2013-10-02 15:52:00,
2013-10-02 11:07:00,76.5,67.0,30.19,East,87,1.0,-999.0,72,-99.99,,,0.00,weatherlink.com 1.10,2013-10-02 16:07:00,
2013-10-02 11:22:00,77.0,65.0,30.18,ESE,103,0.0,-999.0,67,-99.99,,,0.00,weatherlink.com 1.10,2013-10-02 16:22:00,
2013-10-02 11:37:00,77.5,65.0,30.18,ENE,71,1.0,-999.0,65,-99.99,,,0.00,weatherlink.com 1.10,2013-10-02 16:37:00,
2013-10-02 11:52:00,77.8,65.0,30.18,South,172,0.0,-999.0,64,-99.99,,,0.00,weatherlink.com 1.10,2013-10-02 16:52:00,
2013-10-02 12:07:00,78.5,65.0,30.18,South,174,0.0,-999.0,63,-99.99,,,0.00,weatherlink.com 1.10,2013-10-02 17:07:00,
2013-10-02 12:22:00,78.7,64.0,30.17,ESE,119,0.0,-999.0,61,-99.99,,,0.00,weatherlink.com 1.10,2013-10-02 17:22:00,
2013-10-02 12:37:00,79.2,65.0,30.16,ESE,122,0.0,-999.0,62,-99.99,,,0.00,weatherlink.com 1.10,2013-10-02 17:37:00,
2013-10-02 12:52:00,79.1,64.0,30.16,North,5,1.0,-999.0,60,-99.99,,,0.00,weatherlink.com 1.10,2013-10-02 17:52:00,
2013-10-02 13:07:00,79.6,65.0,30.15,South,180,0.0,-999.0,61,-99.99,,,0.00,weatherlink.com 1.10,2013-10-02 18:07:00,
2013-10-02 13:22:00,79.7,64.0,30.14,SW,219,1.0,-999.0,59,-99.99,,,0.00,weatherlink.com 1.10,2013-10-02 18:22:00,
2013-10-02 13:37:00,79.9,64.0,30.14,SE,146,1.0,-999.0,59,-99.99,,,0.00,weatherlink.com 1.10,2013-10-02 18:37:00,
2013-10-02 13:52:00,80.9,64.0,30.14,SE,126,0.0,-999.0,56,-99.99,,,0.00,weatherlink.com 1.10,2013-10-02 18:52:00,
2013-10-02 14:07:00,79.8,64.0,30.14,SSW,198,2.0,-999.0,59,-99.99,,,0.00,weatherlink.com 1.10,2013-10-02 19:07:00,
2013-10-02 14:22:00,80.4,63.0,30.13,SE,139,5.0,-999.0,56,-99.99,,,0.00,weatherlink.com 1.10,2013-10-02 19:22:00,
2013-10-02 14:37:00,79.9,62.0,30.12,ESE,122,2.0,-999.0,55,-99.99,,,0.00,weatherlink.com 1.10,2013-10-02 19:37:00,
2013-10-02 14:52:00,81.2,63.0,30.12,SSE,165,1.0,-999.0,54,-99.99,,,0.00,weatherlink.com 1.10,2013-10-02 19:52:00,
2013-10-02 15:07:00,80.8,63.0,30.11,SSW,205,2.0,-999.0,55,-99.99,,,0.00,weatherlink.com 1.10,2013-10-02 20:07:00,
2013-10-02 15:22:00,80.7,63.0,30.11,East,97,0.0,-999.0,55,-99.99,,,0.00,weatherlink.com 1.10,2013-10-02 20:22:00,
2013-10-02 15:37:00,80.2,63.0,30.11,SW,230,0.0,-999.0,56,-99.99,,,0.00,weatherlink.com 1.10,2013-10-02 20:37:00,
2013-10-02 15:52:00,80.3,64.0,30.11,SE,134,1.0,-999.0,58,-99.99,,,0.00,weatherlink.com 1.10,2013-10-02 20:52:00,
2013-10-02 16:08:00,80.2,63.0,30.11,South,171,1.0,-999.0,57,-99.99,,,0.00,weatherlink.com 1.10,2013-10-02 21:08:00,
2013-10-02 16:23:00,79.9,64.0,30.10,South,175,0.0,-999.0,58,-99.99,,,0.00,weatherlink.com 1.10,2013-10-02 21:23:00,
2013-10-02 16:38:00,79.6,64.0,30.11,SE,132,0.0,-999.0,59,-99.99,,,0.00,weatherlink.com 1.10,2013-10-02 21:38:00,
2013-10-02 16:53:00,79.1,64.0,30.10,SSE,159,0.0,-999.0,61,-99.99,,,0.00,weatherlink.com 1.10,2013-10-02 21:53:00,
2013-10-02 17:08:00,78.5,64.0,30.11,SSE,159,0.0,-999.0,62,-99.99,,,0.00,weatherlink.com 1.10,2013-10-02 22:08:00,
2013-10-02 17:23:00,78.1,64.0,30.11,SSE,159,0.0,-999.0,63,-99.99,,,0.00,weatherlink.com 1.10,2013-10-02 22:23:00,
2013-10-02 17:38:00,77.5,64.0,30.11,SSE,159,1.0,-999.0,64,-99.99,,,0.00,weatherlink.com 1.10,2013-10-02 22:38:00,
2013-10-02 17:53:00,76.7,64.0,30.11,SSE,159,0.0,-999.0,65,-99.99,,,0.00,weatherlink.com 1.10,2013-10-02 22:53:00,
2013-10-02 18:08:00,76.2,64.0,30.11,SSE,159,0.0,-999.0,66,-99.99,,,0.00,weatherlink.com 1.10,2013-10-02 23:08:00,
2013-10-02 18:23:00,75.7,64.0,30.11,SSE,159,0.0,-999.0,67,-99.99,,,0.00,weatherlink.com 1.10,2013-10-02 23:23:00,
2013-10-02 18:38:00,75.3,64.0,30.11,SSE,159,0.0,-999.0,69,-99.99,,,0.00,weatherlink.com 1.10,2013-10-02 23:38:00,
2013-10-02 18:53:00,74.6,64.0,30.11,SSE,159,0.0,-999.0,69,-99.99,,,0.00,weatherlink.com 1.10,2013-10-02 23:53:00,
2013-10-02 19:08:00,74.0,64.0,30.11,SSE,159,0.0,-999.0,72,-99.99,,,0.00,weatherlink.com 1.10,2013-10-03 00:08:00,
2013-10-02 19:23:00,73.1,64.0,30.12,SSE,159,0.0,-999.0,74,-99.99,,,0.00,weatherlink.com 1.10,2013-10-03 00:23:00,
2013-10-02 19:53:00,72.1,65.0,30.12,SSE,159,0.0,-999.0,77,-99.99,,,0.00,weatherlink.com 1.10,2013-10-03 00:53:00,
2013-10-02 20:08:00,72.0,65.0,30.13,SSE,159,0.0,-999.0,79,-99.99,,,0.00,weatherlink.com 1.10,2013-10-03 01:08:00,
2013-10-02 20:23:00,71.9,66.0,30.14,SSE,159,0.0,-999.0,81,-99.99,,,0.00,weatherlink.com 1.10,2013-10-03 01:23:00,
2013-10-02 20:38:00,71.7,66.0,30.14,SSE,159,0.0,-999.0,82,-99.99,,,0.00,weatherlink.com 1.10,2013-10-03 01:38:00,
2013-10-02 20:53:00,71.7,66.0,30.14,SSE,159,0.0,-999.0,81,-99.99,,,0.00,weatherlink.com 1.10,2013-10-03 01:53:00,
2013-10-02 21:08:00,71.5,66.0,30.14,SSE,159,0.0,-999.0,82,-99.99,,,0.00,weatherlink.com 1.10,2013-10-03 02:08:00,
2013-10-02 21:23:00,71.0,66.0,30.14,SSE,159,0.0,-999.0,83,-99.99,,,0.00,weatherlink.com 1.10,2013-10-03 02:23:00,
2013-10-02 21:38:00,70.4,65.0,30.14,SSE,159,0.0,-999.0,84,-99.99,,,0.00,weatherlink.com 1.10,2013-10-03 02:38:00,
2013-10-02 21:53:00,69.9,66.0,30.14,SSE,159,0.0,-999.0,86,-99.99,,,0.00,weatherlink.com 1.10,2013-10-03 02:53:00,
2013-10-02 22:08:00,69.9,66.0,30.14,SSE,159,0.0,-999.0,88,-99.99,,,0.00,weatherlink.com 1.10,2013-10-03 03:08:00,
2013-10-02 22:23:00,70.1,66.0,30.14,SSE,159,0.0,-999.0,87,-99.99,,,0.00,weatherlink.com 1.10,2013-10-03 03:23:00,
2013-10-02 22:38:00,70.0,66.0,30.15,SSE,159,0.0,-999.0,87,-99.99,,,0.00,weatherlink.com 1.10,2013-10-03 03:38:00,
2013-10-02 22:53:00,69.8,66.0,30.15,SSE,159,0.0,-999.0,86,-99.99,,,0.00,weatherlink.com 1.10,2013-10-03 03:53:00,
2013-10-02 23:08:00,70.0,66.0,30.15,SSE,159,0.0,-999.0,86,-99.99,,,0.00,weatherlink.com 1.10,2013-10-03 04:08:00,
2013-10-02 23:23:00,69.7,66.0,30.15,SSE,159,0.0,-999.0,87,-99.99,,,0.00,weatherlink.com 1.10,2013-10-03 04:23:00,
2013-10-02 23:38:00,69.6,65.0,30.14,SSE,159,0.0,-999.0,86,-99.99,,,0.00,weatherlink.com 1.10,2013-10-03 04:38:00,
2013-10-02 23:53:00,69.6,66.0,30.14,SSE,159,0.0,-999.0,87,-99.99,,,0.00,weatherlink.com 1.10,2013-10-03 04:53:00,